Time;durP1;ratioP1;P1;durP2;ratioP2;P2;SDS_P1;SDS_P2;PMS_P1;PMS_P2;Temp;Humidity;BMP_temperature;BMP_pressure;BME280_temperature;BME280_humidity;BME280_pressure;Samples;Min_cycle;Max_cycle;Signal;HPM_P1;HPM_P2
2022/01/03 00:01:40;;;;;;;11.88;3.80;;;;;;;12.51;72.90;100470.59;20781897;28;20117;-72
2022/01/03 00:11:42;;;;;;;9.80;1.73;;;;;;;12.47;72.84;100473.34;20789788;28;20136;-71
2022/01/03 00:21:45;;;;;;;7.20;1.90;;;;;;;12.53;71.21;100468.81;20783630;28;20107;-73
2022/01/03 00:31:47;;;;;;;10.52;2.60;;;;;;;12.53;70.81;100474.06;20779165;28;20046;-73
2022/01/03 00:41:49;;;;;;;12.07;3.20;;;;;;;12.46;71.50;100500.50;20780949;28;20045;-73
2022/01/03 00:51:51;;;;;;;10.30;2.75;;;;;;;12.40;71.61;100504.09;20779268;28;20050;-72
2022/01/03 01:01:58;;;;;;;9.35;1.95;;;;;;;12.35;71.84;100505.09;20780117;28;20057;-73
2022/01/03 01:12:00;;;;;;;10.32;1.58;;;;;;;12.33;72.62;100515.66;20777983;28;20058;-74
2022/01/03 01:22:02;;;;;;;10.02;2.20;;;;;;;12.33;72.58;100515.66;20777908;28;20053;-73
2022/01/03 01:32:08;;;;;;;9.50;1.80;;;;;;;12.27;73.68;100516.66;20774596;28;20750;-73
2022/01/03 01:42:15;;;;;;;9.75;1.75;;;;;;;12.24;74.01;100519.31;20774507;28;20499;-73
2022/01/03 01:52:22;;;;;;;9.98;1.80;;;;;;;12.23;74.33;100540.38;20775476;28;20042;-73
2022/01/03 02:02:33;;;;;;;13.75;1.90;;;;;;;12.12;75.32;100531.81;20776537;28;20441;-72
2022/01/03 02:12:41;;;;;;;9.68;1.90;;;;;;;12.06;75.64;100535.44;20778081;28;20046;-73
2022/01/03 02:22:43;;;;;;;9.30;2.25;;;;;;;12.07;76.33;100542.41;20838034;23;20074;-72
2022/01/03 02:32:45;;;;;;;10.38;2.03;;;;;;;12.01;76.58;100553.91;20939263;28;20117;-72
2022/01/03 02:42:49;;;;;;;11.02;2.10;;;;;;;11.90;76.65;100571.59;20939066;28;20052;-71
2022/01/03 02:52:51;;;;;;;11.32;2.30;;;;;;;11.82;77.12;100558.63;20942890;28;20098;-71
2022/01/03 03:02:52;;;;;;;13.02;2.30;;;;;;;11.69;78.63;100557.09;20952206;28;20048;-70
2022/01/03 03:12:54;;;;;;;11.32;2.20;;;;;;;11.68;78.58;100571.09;20953530;28;20572;-70
2022/01/03 03:22:58;;;;;;;6.85;1.77;;;;;;;11.34;84.17;100593.53;20953449;28;20129;-70
2022/01/03 03:33:16;;;;;;;13.35;2.15;;;;;;;10.48;98.31;100592.97;20953448;28;20533;-70
2022/01/03 03:43:18;;;;;;;10.52;2.05;;;;;;;10.26;99.84;100584.50;20952323;28;20052;-72
2022/01/03 03:53:20;;;;;;;14.93;2.22;;;;;;;10.36;98.06;100589.66;20948809;28;20413;-72
2022/01/03 04:03:22;;;;;;;12.50;2.03;;;;;;;10.52;95.72;100575.47;20946940;28;20045;-72
2022/01/03 04:13:24;;;;;;;10.18;2.13;;;;;;;10.77;89.20;100562.91;20951659;28;20473;-72
2022/01/03 04:23:25;;;;;;;8.60;2.28;;;;;;;10.67;90.57;100562.16;20947826;28;20060;-72
2022/01/03 04:33:27;;;;;;;10.32;1.95;;;;;;;10.69;88.20;100557.78;20949017;28;20040;-72
2022/01/03 04:43:29;;;;;;;6.03;1.35;;;;;;;10.43;88.36;100563.34;20946341;28;20094;-72
2022/01/03 04:53:33;;;;;;;6.93;1.83;;;;;;;10.30;89.55;100581.84;20946053;28;20041;-73
2022/01/03 05:03:34;;;;;;;6.07;1.05;;;;;;;10.21;90.14;100572.34;20945912;28;20063;-73
2022/01/03 05:13:36;;;;;;;5.13;1.60;;;;;;;9.97;92.71;100574.34;20941543;28;20049;-73
2022/01/03 05:23:37;;;;;;;7.75;1.30;;;;;;;9.98;92.58;100562.13;20943430;28;20040;-73
2022/01/03 05:33:39;;;;;;;8.38;1.40;;;;;;;10.03;93.35;100569.03;20942157;28;20037;-73
2022/01/03 05:43:41;;;;;;;9.15;1.60;;;;;;;9.99;94.08;100571.69;20940740;28;20547;-73
2022/01/03 05:53:43;;;;;;;9.90;1.70;;;;;;;9.88;94.02;100582.28;20936486;28;20076;-71
2022/01/03 06:03:45;;;;;;;9.35;2.00;;;;;;;9.85;94.84;100584.91;20940820;28;20511;-74
2022/01/03 06:13:46;;;;;;;7.80;1.73;;;;;;;9.89;94.52;100567.44;20940608;28;20407;-72
2022/01/03 06:23:48;;;;;;;14.82;1.90;;;;;;;9.90;94.19;100567.41;20940446;28;20053;-73
2022/01/03 06:33:49;;;;;;;10.98;1.90;;;;;;;10.01;94.11;100560.34;20957735;28;20095;-72
2022/01/03 06:43:51;;;;;;;13.85;2.30;;;;;;;10.06;93.80;100546.31;20956454;28;20044;-71
2022/01/03 06:53:53;;;;;;;15.23;3.60;;;;;;;10.07;94.43;100538.47;20955341;28;20110;-72
2022/01/03 07:03:54;;;;;;;14.80;2.55;;;;;;;10.13;94.51;100548.00;20952578;28;20052;-72
2022/01/03 07:18:55;;;;;;;10.82;2.65;;;;;;;10.11;94.66;100549.75;20954529;28;20053;-72
2022/01/03 07:24:18;;;;;;;12.48;2.35;;;;;;;10.12;95.25;100568.06;20949537;28;20068;-72
2022/01/03 07:34:20;;;;;;;10.32;2.00;;;;;;;9.82;100.00;100548.34;20951107;28;20045;-71
2022/01/03 07:44:21;;;;;;;13.65;2.30;;;;;;;9.90;99.82;100541.25;20952190;28;20464;-71
2022/01/03 07:54:23;;;;;;;8.35;2.15;;;;;;;9.78;100.00;100536.19;20949565;28;20053;-71
2022/01/03 08:04:24;;;;;;;12.05;2.08;;;;;;;9.86;99.59;100543.94;20938375;28;20425;-71
2022/01/03 08:14:26;;;;;;;8.68;1.80;;;;;;;9.99;98.39;100549.00;20939634;28;20467;-71
2022/01/03 08:24:28;;;;;;;8.65;2.00;;;;;;;10.13;95.96;100538.41;20940590;23;20053;-71
2022/01/03 08:34:30;;;;;;;14.07;2.00;;;;;;;10.25;93.84;100522.59;20790772;28;20160;-73
2022/01/03 08:44:33;;;;;;;14.05;2.40;;;;;;;10.41;93.05;100544.19;20792623;28;20053;-72
2022/01/03 08:54:35;;;;;;;13.85;2.45;;;;;;;10.52;91.23;100526.59;20777835;28;20140;-71
2022/01/03 09:04:37;;;;;;;11.77;2.13;;;;;;;10.65;90.44;100529.06;20774020;28;20038;-71
2022/01/03 09:14:38;;;;;;;13.63;2.17;;;;;;;10.79;88.82;100521.88;20774048;28;20123;-72
2022/01/03 09:24:51;;;;;;;11.45;2.47;;;;;;;10.87;86.69;100511.25;20773864;28;20045;-73
2022/01/03 09:34:53;;;;;;;12.63;2.17;;;;;;;10.94;87.00;100508.53;20772096;28;20450;-78
2022/01/03 09:44:56;;;;;;;9.82;1.88;;;;;;;11.09;86.74;100527.53;20753892;28;20052;-72
2022/01/03 09:54:59;;;;;;;12.18;2.38;;;;;;;11.19;84.41;100523.88;20768327;28;20057;-73
2022/01/03 10:05:02;;;;;;;10.25;2.28;;;;;;;11.20;84.06;100515.97;20769340;28;20050;-75
2022/01/03 10:15:08;;;;;;;10.75;1.95;;;;;;;11.28;83.61;100511.47;20771859;28;20261;-73
2022/01/03 10:25:16;;;;;;;10.25;2.17;;;;;;;11.31;82.99;100505.31;20767031;28;20623;-73
2022/01/03 10:35:23;;;;;;;7.15;1.90;;;;;;;11.49;80.10;100494.50;20767716;28;20046;-72
2022/01/03 10:45:33;;;;;;;11.50;1.70;;;;;;;11.54;80.56;100483.91;20770693;28;20049;-73
2022/01/03 10:55:35;;;;;;;11.27;2.30;;;;;;;11.64;78.97;100472.41;20767380;28;20108;-72
2022/01/03 11:05:43;;;;;;;8.77;1.90;;;;;;;11.78;78.67;100461.59;20765276;28;20046;-72
2022/01/03 11:15:55;;;;;;;7.07;2.40;;;;;;;11.82;78.59;100463.31;20779906;28;20050;-71
2022/01/03 11:25:58;;;;;;;13.73;2.50;;;;;;;11.97;77.13;100441.16;20771651;28;20522;-72
2022/01/03 11:36:01;;;;;;;11.63;1.70;;;;;;;11.95;76.18;100422.81;20778596;28;20046;-71
2022/01/03 11:46:05;;;;;;;13.00;2.55;;;;;;;11.95;76.83;100420.19;20780886;28;20049;-72
2022/01/03 11:56:12;;;;;;;10.35;2.45;;;;;;;12.03;74.73;100410.41;20780034;28;20045;-71
2022/01/03 12:06:23;;;;;;;10.82;2.15;;;;;;;12.09;75.03;100383.16;20776953;28;20466;-72
2022/01/03 12:16:44;;;;;;;11.25;2.20;;;;;;;12.16;74.00;100352.38;20777756;28;20097;-72
2022/01/03 12:27:15;;;;;;;9.60;2.88;;;;;;;12.12;73.93;100341.13;20777505;28;20107;-72
2022/01/03 12:37:19;;;;;;;11.25;1.90;;;;;;;12.17;74.31;100314.72;20776210;28;20518;-72
2022/01/03 12:47:22;;;;;;;11.27;2.63;;;;;;;12.04;74.68;100282.69;20776312;28;20429;-72
2022/01/03 12:57:29;;;;;;;12.68;2.38;;;;;;;12.07;73.08;100278.22;20774993;28;20108;-70
2022/01/03 13:07:31;;;;;;;11.63;1.90;;;;;;;12.04;71.93;100259.06;20770672;28;20572;-70
2022/01/03 13:17:32;;;;;;;8.90;2.10;;;;;;;12.14;71.84;100251.84;20771238;28;20494;-70
2022/01/03 13:27:39;;;;;;;9.82;1.98;;;;;;;12.09;71.30;100227.47;20772253;28;20045;-70
2022/01/03 13:37:41;;;;;;;10.52;1.60;;;;;;;12.15;70.50;100208.94;20768502;28;20514;-72
2022/01/03 13:58:06;;;;;;;8.23;1.60;;;;;;;12.24;69.43;100179.81;20769745;28;20115;-73
2022/01/03 14:08:08;;;;;;;11.50;1.90;;;;;;;12.12;69.27;100172.25;20772519;28;20145;-70
2022/01/03 14:18:09;;;;;;;9.70;2.00;;;;;;;12.09;69.43;100156.59;20768890;28;20058;-71
2022/01/03 14:28:11;;;;;;;7.00;1.33;;;;;;;12.23;67.28;100159.72;20769452;28;20496;-71
2022/01/03 14:38:15;;;;;;;8.82;1.80;;;;;;;12.06;68.61;100142.66;20765871;28;20042;-72
2022/01/03 14:48:19;;;;;;;11.18;1.70;;;;;;;12.02;69.76;100120.00;20785161;28;20091;-72
2022/01/03 14:58:22;;;;;;;7.80;1.88;;;;;;;11.99;70.26;100130.59;20792254;28;20331;-70
2022/01/03 15:08:23;;;;;;;10.95;2.35;;;;;;;11.82;70.73;100143.28;20780414;28;20097;-70
2022/01/03 15:18:24;;;;;;;10.63;2.47;;;;;;;11.69;72.61;100126.97;20778733;28;20391;-70
2022/01/03 15:28:26;;;;;;;11.18;2.97;;;;;;;11.56;73.26;100117.66;20781167;28;20454;-71
2022/01/03 15:38:30;;;;;;;7.13;1.85;;;;;;;11.53;72.86;100117.72;20780614;28;20103;-71
2022/01/03 15:48:31;;;;;;;7.28;1.77;;;;;;;11.42;72.96;100101.41;20776813;28;20111;-72
2022/01/03 15:58:33;;;;;;;8.15;1.73;;;;;;;11.37;73.77;100093.66;20775560;28;20050;-70
2022/01/03 16:08:34;;;;;;;7.65;1.73;;;;;;;11.42;72.99;100073.44;20777129;28;20391;-70
2022/01/03 16:18:37;;;;;;;6.57;1.25;;;;;;;11.33;73.41;100071.03;20778816;28;20050;-70
2022/01/03 16:28:38;;;;;;;7.25;1.70;;;;;;;11.33;73.60;100051.81;20777250;28;20084;-70
2022/01/03 16:38:40;;;;;;;10.23;2.22;;;;;;;11.23;73.71;100044.19;20773275;28;20698;-70
2022/01/03 16:48:41;;;;;;;9.02;2.15;;;;;;;11.31;73.81;100028.28;20775125;28;20073;-70
2022/01/03 16:58:43;;;;;;;7.40;2.67;;;;;;;11.17;74.29;100009.41;20772618;28;20124;-70
2022/01/03 17:08:45;;;;;;;11.25;3.15;;;;;;;11.24;73.05;100013.59;20771164;28;20069;-70
2022/01/03 17:18:46;;;;;;;8.30;1.60;;;;;;;11.18;73.65;99975.28;20778480;28;20053;-70
2022/01/03 17:28:48;;;;;;;7.95;1.73;;;;;;;11.13;73.56;99963.22;20772008;28;20049;-71
2022/01/03 17:38:51;;;;;;;10.75;1.88;;;;;;;10.98;75.19;99980.16;20768930;28;20053;-71
2022/01/03 17:48:53;;;;;;;10.20;2.80;;;;;;;11.04;75.00;99970.41;20770350;28;20468;-71
2022/01/03 17:58:55;;;;;;;10.15;2.50;;;;;;;11.00;74.52;99958.25;20767253;28;20108;-71
2022/01/03 18:09:00;;;;;;;10.35;2.45;;;;;;;10.76;76.97;99958.84;20765011;28;20045;-71
2022/01/03 18:19:02;;;;;;;11.50;2.63;;;;;;;10.62;77.69;99955.69;20789357;28;20054;-71
2022/01/03 18:29:03;;;;;;;8.40;2.50;;;;;;;10.63;77.72;99931.22;20775886;28;20511;-71
2022/01/03 18:39:06;;;;;;;8.45;2.20;;;;;;;10.50;78.92;99926.28;20766927;28;20050;-71
2022/01/03 18:49:07;;;;;;;6.85;2.33;;;;;;;10.59;78.58;99898.16;20767648;28;20049;-71
2022/01/03 18:59:09;;;;;;;6.38;2.28;;;;;;;10.59;79.81;99882.47;20767031;28;20061;-71
2022/01/03 19:09:11;;;;;;;6.25;2.00;;;;;;;10.67;80.13;99881.38;20763444;28;20230;-70
2022/01/03 19:19:12;;;;;;;8.75;2.58;;;;;;;10.68;82.66;99862.19;20768969;28;20049;-71
2022/01/03 19:29:14;;;;;;;10.20;3.50;;;;;;;10.62;87.10;99856.22;20764501;28;20052;-72
2022/01/03 19:39:15;;;;;;;9.73;2.78;;;;;;;10.43;89.95;99854.03;20775834;28;20101;-73
2022/01/03 19:49:17;;;;;;;8.68;2.28;;;;;;;10.33;92.75;99849.91;20780865;28;20052;-71
2022/01/03 19:59:21;;;;;;;7.78;2.22;;;;;;;10.15;96.38;99827.63;20776030;28;20518;-71
2022/01/03 20:09:23;;;;;;;9.63;2.35;;;;;;;10.03;98.09;99818.31;20777714;28;20058;-70
2022/01/03 20:19:25;;;;;;;5.07;2.08;;;;;;;9.97;100.00;99787.09;20777130;28;20050;-70
2022/01/03 20:29:26;;;;;;;8.65;1.90;;;;;;;9.83;100.00;99770.84;20946312;23;20049;-70
2022/01/03 20:39:28;;;;;;;7.45;2.08;;;;;;;9.74;100.00;99755.38;20941903;28;20421;-71
2022/01/03 20:49:30;;;;;;;6.90;1.80;;;;;;;9.73;100.00;99737.97;20938482;28;20053;-70
2022/01/03 20:59:32;;;;;;;5.20;2.00;;;;;;;9.72;100.00;99715.31;20944841;28;20103;-70
2022/01/03 21:09:34;;;;;;;5.90;1.92;;;;;;;9.61;100.00;99688.56;20934906;28;20563;-69
2022/01/03 21:19:36;;;;;;;6.43;2.10;;;;;;;9.59;100.00;99657.25;20935319;28;20049;-69
2022/01/03 21:29:37;;;;;;;7.55;2.15;;;;;;;9.55;100.00;99632.09;20935512;28;20045;-69
2022/01/03 21:39:39;;;;;;;9.82;2.80;;;;;;;9.56;100.00;99605.03;20934501;28;20052;-69
2022/01/03 21:49:40;;;;;;;11.68;3.90;;;;;;;9.49;100.00;99593.91;20933178;28;20048;-70
2022/01/03 21:59:44;;;;;;;9.60;4.23;;;;;;;9.50;100.00;99581.69;20934159;28;20052;-69
2022/01/03 22:09:46;;;;;;;8.05;2.92;;;;;;;9.52;100.00;99567.66;20928302;28;20387;-68
2022/01/03 22:19:49;;;;;;;6.68;2.75;;;;;;;9.54;100.00;99558.97;20935851;28;20540;-69
2022/01/03 22:29:50;;;;;;;7.30;2.63;;;;;;;9.50;100.00;99538.13;20932444;28;20052;-69
2022/01/03 22:39:52;;;;;;;11.40;2.30;;;;;;;9.56;100.00;99531.88;20932865;28;20045;-69
2022/01/03 22:49:54;;;;;;;9.95;3.30;;;;;;;9.56;100.00;99515.34;20930682;28;20044;-69
2022/01/03 22:59:55;;;;;;;8.25;2.50;;;;;;;9.64;100.00;99498.56;20931615;28;20049;-69
2022/01/03 23:09:57;;;;;;;7.65;2.55;;;;;;;9.58;100.00;99482.16;20943795;28;20121;-72
2022/01/03 23:19:58;;;;;;;6.40;2.17;;;;;;;9.65;100.00;99473.28;20953859;28;20564;-68
2022/01/03 23:30:00;;;;;;;5.30;1.80;;;;;;;9.69;100.00;99465.31;20951845;28;20128;-68
2022/01/03 23:40:03;;;;;;;5.63;1.65;;;;;;;9.66;100.00;99436.66;20952270;28;20416;-69
2022/01/03 23:50:07;;;;;;;5.57;1.90;;;;;;;9.75;100.00;99430.31;20949712;28;20049;-69
